Time;durP1;ratioP1;P1;durP2;ratioP2;P2;SDS_P1;SDS_P2;PMS_P1;PMS_P2;Temp;Humidity;BMP_temperature;BMP_pressure;BME280_temperature;BME280_humidity;BME280_pressure;Samples;Min_cycle;Max_cycle;Signal;HPM_P1;HPM_P2
2022/03/07 00:01:04;;;;;;;4.58;3.80;;;;;;;10.27;45.22;99790.45;1743585;82;22149;-67
2022/03/07 00:03:30;;;;;;;4.60;3.80;;;;;;;10.28;45.25;99788.65;1730194;82;21007;-68
2022/03/07 00:05:58;;;;;;;4.28;3.75;;;;;;;10.27;45.24;99781.16;1724410;82;20999;-69
2022/03/07 00:08:26;;;;;;;3.77;3.05;;;;;;;10.28;45.23;99782.02;1740880;82;21030;-68
2022/03/07 00:10:54;;;;;;;3.95;3.40;;;;;;;10.27;45.25;99781.66;1743662;81;21007;-68
2022/03/07 00:13:22;;;;;;;4.42;3.55;;;;;;;10.26;45.25;99778.66;1743695;81;20980;-67
2022/03/07 00:15:50;;;;;;;3.55;3.25;;;;;;;10.25;45.25;99775.19;1743611;81;21050;-67
2022/03/07 00:18:17;;;;;;;4.47;3.60;;;;;;;10.27;45.24;99773.70;1744013;81;21000;-67
2022/03/07 00:20:45;;;;;;;4.80;3.67;;;;;;;10.25;45.23;99768.55;1731162;82;21511;-68
2022/03/07 00:23:12;;;;;;;4.15;3.40;;;;;;;10.24;45.23;99761.09;1743684;81;21018;-67
2022/03/07 00:25:39;;;;;;;4.53;3.50;;;;;;;10.24;45.23;99750.97;1743974;82;21192;-67
2022/03/07 00:28:05;;;;;;;4.10;3.70;;;;;;;10.23;45.23;99750.63;1743775;82;21009;-68
2022/03/07 00:30:34;;;;;;;4.15;3.60;;;;;;;10.24;45.25;99753.12;1743626;81;21074;-67
2022/03/07 00:33:00;;;;;;;4.35;3.05;;;;;;;10.23;45.23;99748.80;1743673;81;21059;-68
2022/03/07 00:35:29;;;;;;;4.08;3.45;;;;;;;10.23;45.23;99742.66;1743720;81;21034;-67
2022/03/07 00:37:57;;;;;;;4.65;4.00;;;;;;;10.21;45.22;99737.52;1742807;81;21066;-67
2022/03/07 00:40:24;;;;;;;4.58;3.75;;;;;;;10.21;45.21;99735.36;1752304;81;21029;-68
2022/03/07 00:42:51;;;;;;;3.50;3.20;;;;;;;10.20;45.22;99729.73;1756927;81;21008;-67
2022/03/07 00:45:19;;;;;;;3.87;3.22;;;;;;;10.19;45.23;99731.54;1756975;81;21518;-68
2022/03/07 00:47:46;;;;;;;3.47;3.10;;;;;;;10.20;45.21;99723.10;1757205;81;21013;-67
2022/03/07 00:50:12;;;;;;;4.37;3.75;;;;;;;10.20;45.21;99737.20;1756912;81;21210;-68
2022/03/07 00:52:38;;;;;;;4.45;3.30;;;;;;;10.20;45.22;99725.76;1756907;81;20999;-67
2022/03/07 00:55:08;;;;;;;3.70;3.22;;;;;;;10.19;45.21;99725.41;1756075;81;21056;-68
2022/03/07 00:57:35;;;;;;;4.25;3.83;;;;;;;10.18;45.20;99721.94;1757214;81;21015;-67
2022/03/07 01:00:04;;;;;;;4.00;3.33;;;;;;;10.19;45.21;99726.73;1756967;81;21034;-67
2022/03/07 01:02:33;;;;;;;4.55;3.85;;;;;;;10.18;45.21;99719.28;1757112;81;21038;-67
2022/03/07 01:05:00;;;;;;;3.75;3.22;;;;;;;10.18;45.21;99706.00;1756953;81;21014;-68
2022/03/07 01:07:29;;;;;;;5.15;4.00;;;;;;;10.18;45.21;99700.70;1756890;81;21002;-67
2022/03/07 01:09:55;;;;;;;5.25;3.80;;;;;;;10.19;45.20;99700.19;1756820;81;21081;-68
2022/03/07 01:12:25;;;;;;;4.97;4.22;;;;;;;10.18;45.20;99697.22;1752269;81;21493;-67
2022/03/07 01:14:52;;;;;;;5.03;4.03;;;;;;;10.18;45.20;99692.73;1739915;81;22183;-67
2022/03/07 01:17:18;;;;;;;4.85;4.35;;;;;;;10.18;45.20;99689.25;1757213;81;21534;-69
2022/03/07 01:19:45;;;;;;;6.97;4.12;;;;;;;10.16;45.17;99686.76;1756786;81;21356;-67
2022/03/07 01:22:13;;;;;;;4.33;3.70;;;;;;;10.17;45.18;99679.62;1756961;81;21026;-67
2022/03/07 01:24:39;;;;;;;4.75;3.75;;;;;;;10.17;45.17;99684.92;1757233;81;21081;-68
2022/03/07 01:27:06;;;;;;;5.83;4.37;;;;;;;10.17;45.16;99679.62;1757165;81;21185;-68
2022/03/07 01:29:32;;;;;;;7.47;4.78;;;;;;;10.15;45.17;99671.81;1756157;81;21006;-67
2022/03/07 01:31:59;;;;;;;5.53;4.20;;;;;;;10.16;45.17;99675.29;1757242;81;21104;-67
2022/03/07 01:34:28;;;;;;;5.20;4.30;;;;;;;10.14;45.16;99668.84;1756929;81;21027;-67
2022/03/07 01:36:54;;;;;;;5.35;4.30;;;;;;;10.15;45.17;99668.34;1756898;81;21006;-67
2022/03/07 01:39:21;;;;;;;5.45;4.35;;;;;;;10.15;45.16;99665.18;1755848;80;21235;-67
2022/03/07 01:41:47;;;;;;;4.50;3.87;;;;;;;10.15;45.16;99672.32;1743539;82;21259;-68
2022/03/07 01:44:22;;;;;;;4.47;3.98;;;;;;;10.14;45.17;99662.69;1743605;81;21011;-67
2022/03/07 01:46:50;;;;;;;6.65;4.75;;;;;;;10.14;45.16;99669.32;1742903;82;21604;-67
2022/03/07 01:49:18;;;;;;;5.00;4.20;;;;;;;10.14;45.15;99666.19;1743602;82;21503;-68
2022/03/07 01:51:46;;;;;;;5.30;4.10;;;;;;;10.13;45.16;99661.86;1743532;82;21228;-67
2022/03/07 01:54:15;;;;;;;5.58;4.37;;;;;;;10.13;45.16;99665.02;1743452;81;21003;-67
2022/03/07 01:56:45;;;;;;;6.90;4.92;;;;;;;10.12;45.17;99663.35;1743464;82;21093;-67
2022/03/07 01:59:14;;;;;;;5.28;4.62;;;;;;;10.12;45.16;99666.00;1743483;82;21062;-67
2022/03/07 02:01:42;;;;;;;5.83;4.33;;;;;;;10.11;45.15;99658.55;1740201;81;21043;-67
2022/03/07 02:04:09;;;;;;;5.72;4.25;;;;;;;10.11;45.17;99649.77;1713841;83;21234;-67
2022/03/07 02:06:39;;;;;;;6.15;4.12;;;;;;;10.10;45.15;99656.91;1713730;82;21082;-67
2022/03/07 02:09:11;;;;;;;5.90;4.87;;;;;;;10.11;45.15;99655.08;1713850;83;21046;-67
2022/03/07 02:11:39;;;;;;;5.55;4.55;;;;;;;10.10;45.15;99650.27;1713800;82;21046;-67
2022/03/07 02:14:18;;;;;;;5.95;4.75;;;;;;;10.10;45.13;99646.77;1703492;83;21057;-67
2022/03/07 02:16:46;;;;;;;6.90;4.83;;;;;;;10.09;45.13;99637.16;1729553;82;21868;-68
2022/03/07 02:19:13;;;;;;;6.10;4.72;;;;;;;10.09;45.13;99641.14;1741400;82;21006;-67
2022/03/07 02:21:48;;;;;;;5.35;4.00;;;;;;;10.08;45.14;99629.67;1743457;81;20995;-67
2022/03/07 02:24:17;;;;;;;5.37;4.20;;;;;;;10.08;45.12;99633.66;1743652;81;21066;-66
2022/03/07 02:27:01;;;;;;;6.45;4.50;;;;;;;10.08;45.12;99630.18;1743592;81;21078;-67
2022/03/07 02:29:29;;;;;;;8.00;5.58;;;;;;;10.07;45.14;99626.70;1743133;81;21138;-68
2022/03/07 02:31:58;;;;;;;5.50;4.08;;;;;;;10.08;45.12;99622.22;1743344;81;21043;-68
2022/03/07 02:34:25;;;;;;;5.95;4.78;;;;;;;10.06;45.14;99621.56;1743653;82;21046;-66
2022/03/07 02:36:52;;;;;;;5.45;4.62;;;;;;;10.06;45.13;99625.03;1727785;82;21094;-67
2022/03/07 02:39:19;;;;;;;7.20;5.33;;;;;;;10.07;45.13;99620.58;1713944;83;21102;-68
2022/03/07 02:41:46;;;;;;;5.42;4.20;;;;;;;10.06;45.14;99621.56;1726098;83;21273;-67
2022/03/07 02:44:12;;;;;;;4.33;3.92;;;;;;;10.05;45.14;99612.77;1726818;83;21026;-67
2022/03/07 02:46:39;;;;;;;5.65;4.40;;;;;;;10.05;45.12;99619.41;1726826;82;21068;-67
2022/03/07 02:49:06;;;;;;;7.53;4.30;;;;;;;10.05;45.12;99619.41;1726882;83;21034;-67
2022/03/07 02:51:34;;;;;;;4.80;4.15;;;;;;;10.04;45.12;99621.72;1726768;83;21093;-67
2022/03/07 02:54:02;;;;;;;6.25;4.40;;;;;;;10.05;45.11;99618.08;1746739;81;21237;-68
2022/03/07 02:56:28;;;;;;;6.28;4.53;;;;;;;10.03;45.12;99614.27;1756878;81;21022;-67
2022/03/07 02:58:55;;;;;;;5.40;4.08;;;;;;;10.03;45.11;99611.61;1756907;81;21025;-67
2022/03/07 03:01:22;;;;;;;5.75;4.37;;;;;;;10.04;45.10;99601.81;1756886;81;21081;-68
2022/03/07 03:03:48;;;;;;;4.97;4.17;;;;;;;10.03;45.11;99604.97;1756981;81;21046;-67
2022/03/07 03:06:15;;;;;;;5.00;4.37;;;;;;;10.03;45.09;99607.63;1756927;81;21296;-68
2022/03/07 03:08:41;;;;;;;5.53;4.55;;;;;;;10.02;45.10;99603.33;1756869;81;21513;-67
2022/03/07 03:11:08;;;;;;;5.08;4.10;;;;;;;10.03;45.11;99605.48;1735398;81;21509;-68
2022/03/07 03:13:35;;;;;;;5.40;4.28;;;;;;;10.02;45.11;99609.97;1726745;83;21010;-68
2022/03/07 03:16:01;;;;;;;4.87;3.92;;;;;;;10.02;45.10;99601.16;1726907;83;21123;-67
2022/03/07 03:18:28;;;;;;;5.62;4.22;;;;;;;10.03;45.11;99605.48;1726919;83;21284;-67
2022/03/07 03:20:56;;;;;;;5.20;3.70;;;;;;;10.02;45.11;99598.02;1728393;81;21050;-68
2022/03/07 03:23:22;;;;;;;4.50;3.60;;;;;;;10.02;45.11;99591.86;1746331;81;21586;-67
2022/03/07 03:25:49;;;;;;;5.75;4.05;;;;;;;10.02;45.10;99593.19;1726892;83;21495;-68
2022/03/07 03:28:15;;;;;;;5.87;4.25;;;;;;;10.01;45.11;99592.38;1727931;81;21505;-67
2022/03/07 03:30:42;;;;;;;6.15;4.25;;;;;;;10.01;45.09;99588.39;1726858;83;21230;-67
2022/03/07 03:33:08;;;;;;;5.45;3.95;;;;;;;10.01;45.10;99585.73;1726917;83;21007;-68
2022/03/07 03:35:38;;;;;;;6.95;4.67;;;;;;;10.00;45.12;99586.72;1726774;83;21018;-68
2022/03/07 03:38:05;;;;;;;7.28;4.30;;;;;;;10.01;45.09;99579.61;1726988;83;21041;-67
2022/03/07 03:40:32;;;;;;;4.67;4.10;;;;;;;10.00;45.07;99577.43;1722943;82;21042;-68
2022/03/07 03:42:58;;;;;;;4.42;3.90;;;;;;;10.00;45.09;99580.08;1713991;83;21996;-67
2022/03/07 03:45:25;;;;;;;5.85;3.70;;;;;;;9.99;45.07;99573.13;1714827;82;20987;-68
2022/03/07 03:47:51;;;;;;;5.33;3.80;;;;;;;10.00;45.08;99575.28;1713929;83;21038;-67
2022/03/07 03:50:18;;;;;;;4.80;4.30;;;;;;;9.99;45.08;99565.68;1713985;83;21030;-67
2022/03/07 03:52:45;;;;;;;4.33;3.55;;;;;;;10.00;45.08;99565.99;1714037;83;21022;-69
2022/03/07 03:55:12;;;;;;;5.47;4.47;;;;;;;9.99;45.06;99561.19;1713861;82;21553;-67
2022/03/07 03:57:40;;;;;;;5.55;4.15;;;;;;;10.00;45.07;99561.51;1713871;82;21479;-67
2022/03/07 04:00:09;;;;;;;5.25;4.25;;;;;;;9.99;45.07;99558.54;1713737;82;21050;-67
2022/03/07 04:02:39;;;;;;;5.17;4.40;;;;;;;9.99;45.06;99556.39;1734611;82;21058;-67
2022/03/07 04:05:06;;;;;;;6.25;4.85;;;;;;;9.98;45.08;99553.39;1743831;81;21570;-68
2022/03/07 04:07:34;;;;;;;4.60;3.92;;;;;;;9.97;45.07;99551.25;1743471;81;21235;-67
2022/03/07 04:10:01;;;;;;;5.20;3.92;;;;;;;9.97;45.08;99545.94;1743685;82;21030;-67
2022/03/07 04:12:28;;;;;;;5.65;4.37;;;;;;;9.97;45.08;99552.58;1743510;81;21081;-67
2022/03/07 04:14:54;;;;;;;4.25;3.33;;;;;;;9.97;45.07;99549.92;1743446;82;21023;-67
2022/03/07 04:17:22;;;;;;;6.87;4.33;;;;;;;9.97;45.08;99553.90;1743463;81;21081;-68
2022/03/07 04:19:49;;;;;;;5.30;4.58;;;;;;;9.97;45.09;99543.80;1743312;82;21823;-67
2022/03/07 04:22:15;;;;;;;5.28;3.77;;;;;;;9.97;45.07;99541.14;1743438;82;21014;-67
2022/03/07 04:24:42;;;;;;;5.78;4.15;;;;;;;9.96;45.08;99537.64;1743404;82;21035;-68
2022/03/07 04:27:08;;;;;;;5.95;4.22;;;;;;;9.96;45.07;99537.64;1743273;81;21065;-67
2022/03/07 04:29:34;;;;;;;4.75;3.58;;;;;;;9.95;45.07;99537.32;1740292;82;21055;-67
2022/03/07 04:32:01;;;;;;;6.05;4.30;;;;;;;9.95;45.07;99532.02;1743617;82;21232;-67
2022/03/07 04:34:28;;;;;;;6.00;4.22;;;;;;;9.96;45.08;99529.67;1742821;82;21070;-67
2022/03/07 04:36:54;;;;;;;6.72;4.85;;;;;;;9.95;45.06;99524.05;1743818;81;21027;-67
2022/03/07 04:39:20;;;;;;;4.90;4.15;;;;;;;9.96;45.07;99523.55;1743512;81;21078;-67
2022/03/07 04:41:47;;;;;;;5.92;4.35;;;;;;;9.95;45.08;99513.95;1752847;80;20998;-68
2022/03/07 04:44:13;;;;;;;6.15;3.85;;;;;;;9.94;45.08;99507.78;1756844;81;21319;-67
2022/03/07 04:46:40;;;;;;;6.10;4.25;;;;;;;9.96;45.06;99512.93;1756751;81;21014;-67
2022/03/07 04:49:10;;;;;;;5.35;3.95;;;;;;;9.95;45.07;99513.44;1756821;81;20998;-67
2022/03/07 04:51:36;;;;;;;5.22;4.00;;;;;;;9.94;45.08;99506.46;1755855;81;21085;-67
2022/03/07 04:54:03;;;;;;;4.67;3.35;;;;;;;9.94;45.08;99506.46;1756953;81;20994;-67
2022/03/07 04:56:31;;;;;;;5.62;4.17;;;;;;;9.94;45.08;99504.31;1756857;81;21216;-68
2022/03/07 04:58:58;;;;;;;5.30;3.85;;;;;;;9.93;45.09;99502.16;1756867;81;20995;-67
2022/03/07 05:01:25;;;;;;;5.22;4.08;;;;;;;9.93;45.08;99506.63;1756751;81;21050;-67
2022/03/07 05:03:51;;;;;;;4.37;3.98;;;;;;;9.93;45.08;99504.82;1756847;81;20979;-67
2022/03/07 05:06:17;;;;;;;5.40;3.95;;;;;;;9.94;45.08;99502.48;1756900;81;21065;-66
2022/03/07 05:08:44;;;;;;;5.45;4.70;;;;;;;9.94;45.08;99499.00;1752882;81;21232;-67
2022/03/07 05:11:11;;;;;;;4.90;3.90;;;;;;;9.94;45.07;99502.48;1727026;83;21490;-67
2022/03/07 05:13:38;;;;;;;5.42;4.00;;;;;;;9.94;45.07;99498.50;1726711;83;21097;-67
2022/03/07 05:16:06;;;;;;;4.97;3.77;;;;;;;9.95;45.06;99492.72;1726782;82;21022;-67
2022/03/07 05:18:32;;;;;;;6.20;3.80;;;;;;;9.94;45.07;99492.38;1727097;83;21054;-68
2022/03/07 05:20:59;;;;;;;4.80;3.98;;;;;;;9.93;45.08;99491.55;1726661;83;21525;-67
2022/03/07 05:23:26;;;;;;;5.05;3.90;;;;;;;9.93;45.09;99494.20;1726656;82;21022;-67
2022/03/07 05:25:53;;;;;;;5.00;4.15;;;;;;;9.93;45.08;99491.55;1727752;81;21029;-67
2022/03/07 05:28:21;;;;;;;5.30;3.65;;;;;;;9.93;45.08;99485.39;1726697;82;21058;-67
2022/03/07 05:30:48;;;;;;;4.22;3.58;;;;;;;9.94;45.07;99490.54;1726725;82;21538;-67
2022/03/07 05:33:14;;;;;;;6.30;3.60;;;;;;;9.93;45.08;99482.27;1732439;81;21980;-67
2022/03/07 05:35:41;;;;;;;4.72;3.72;;;;;;;9.93;45.06;99487.57;1753229;81;21439;-67
2022/03/07 05:38:12;;;;;;;5.08;3.75;;;;;;;9.94;45.08;99480.44;1756784;81;21184;-67
2022/03/07 05:40:36;;;;;;;4.05;3.65;;;;;;;9.93;45.08;99475.63;1755512;81;21081;-68
2022/03/07 05:43:02;;;;;;;4.47;3.55;;;;;;;9.94;45.07;99472.47;1742789;82;21008;-66
2022/03/07 05:45:30;;;;;;;5.83;3.58;;;;;;;9.93;45.09;99466.34;1743586;82;21156;-68
2022/03/07 05:47:57;;;;;;;4.15;3.40;;;;;;;9.94;45.07;99467.16;1743352;82;21074;-68
2022/03/07 05:50:23;;;;;;;5.35;3.70;;;;;;;9.93;45.07;99469.00;1743516;81;21011;-67
2022/03/07 05:52:50;;;;;;;4.67;3.70;;;;;;;9.94;45.07;99470.64;1743420;82;21525;-67
2022/03/07 05:55:16;;;;;;;4.03;3.22;;;;;;;9.94;45.07;99460.53;1743505;82;21050;-67
2022/03/07 05:57:43;;;;;;;3.95;3.27;;;;;;;9.94;45.07;99450.73;1743433;82;21228;-66
2022/03/07 06:00:11;;;;;;;4.45;3.47;;;;;;;9.95;45.07;99453.73;1734174;81;21058;-67
2022/03/07 06:02:37;;;;;;;5.17;3.60;;;;;;;9.95;45.07;99455.56;1742029;80;21519;-68
2022/03/07 06:05:06;;;;;;;4.55;3.08;;;;;;;9.96;45.05;99451.89;1743646;82;21030;-67
2022/03/07 06:07:32;;;;;;;5.53;3.35;;;;;;;9.95;45.05;99444.45;1743765;82;21566;-66
2022/03/07 06:09:59;;;;;;;4.20;3.40;;;;;;;9.96;45.06;99451.39;1743800;82;21194;-67
2022/03/07 06:12:26;;;;;;;3.60;3.20;;;;;;;9.96;45.07;99442.61;1743556;81;21042;-67
2022/03/07 06:14:53;;;;;;;4.47;3.02;;;;;;;9.96;45.06;99442.10;1743642;81;21014;-67
2022/03/07 06:17:21;;;;;;;3.83;2.95;;;;;;;9.97;45.05;99445.09;1742545;81;21086;-68
2022/03/07 06:19:49;;;;;;;3.70;3.02;;;;;;;9.97;45.07;99438.47;1743738;81;21015;-67
2022/03/07 06:22:16;;;;;;;5.45;3.55;;;;;;;9.98;45.05;99435.30;1743782;81;21206;-67
2022/03/07 06:24:42;;;;;;;4.37;3.25;;;;;;;9.98;45.05;99438.77;1743771;82;21062;-68
2022/03/07 06:27:09;;;;;;;5.15;3.45;;;;;;;9.99;45.06;99443.09;1743860;81;21023;-68
2022/03/07 06:29:36;;;;;;;4.67;3.80;;;;;;;9.99;45.05;99444.42;1743632;82;21023;-67
2022/03/07 06:32:02;;;;;;;4.53;3.55;;;;;;;10.00;45.05;99443.92;1743626;82;21039;-67
2022/03/07 06:34:31;;;;;;;4.20;3.12;;;;;;;10.00;45.04;99447.90;1742618;82;21097;-67
2022/03/07 06:36:57;;;;;;;4.00;2.90;;;;;;;10.01;45.03;99440.28;1743677;82;21487;-66
2022/03/07 06:39:26;;;;;;;4.45;3.30;;;;;;;10.00;45.06;99435.45;1742647;81;21573;-67
2022/03/07 06:41:53;;;;;;;3.80;2.92;;;;;;;10.02;45.05;99439.27;1741001;81;21061;-67
2022/03/07 06:44:20;;;;;;;4.97;3.20;;;;;;;10.02;45.05;99435.28;1737487;82;21065;-67
2022/03/07 06:46:47;;;;;;;4.03;2.98;;;;;;;10.02;45.05;99437.94;1737209;82;21230;-67
2022/03/07 06:49:13;;;;;;;4.28;2.85;;;;;;;10.02;45.05;99433.95;1737578;82;20999;-67
2022/03/07 06:51:39;;;;;;;4.35;3.42;;;;;;;10.02;45.05;99432.62;1725697;82;21081;-67
2022/03/07 06:54:07;;;;;;;4.08;3.33;;;;;;;10.03;45.05;99434.30;1713995;82;21027;-67
2022/03/07 06:56:35;;;;;;;3.83;2.95;;;;;;;10.04;45.07;99430.16;1714044;83;21604;-67
2022/03/07 06:59:02;;;;;;;3.67;3.20;;;;;;;10.05;45.04;99428.31;1714025;83;21889;-67
2022/03/07 07:01:29;;;;;;;4.00;3.17;;;;;;;10.05;45.06;99424.34;1739934;80;21046;-67
2022/03/07 07:03:55;;;;;;;3.62;3.15;;;;;;;10.08;45.06;99428.46;1743509;81;21109;-68
2022/03/07 07:06:22;;;;;;;3.50;3.10;;;;;;;10.08;45.05;99423.16;1743617;82;21082;-68
2022/03/07 07:08:48;;;;;;;4.58;3.67;;;;;;;10.08;45.02;99425.30;1742716;81;21030;-67
2022/03/07 07:11:14;;;;;;;4.22;3.20;;;;;;;10.09;45.04;99430.95;1743672;81;21258;-66
2022/03/07 07:13:41;;;;;;;3.75;3.00;;;;;;;10.10;45.03;99426.46;1743483;82;21030;-67
2022/03/07 07:16:07;;;;;;;4.45;3.00;;;;;;;10.11;45.03;99421.49;1743645;82;21074;-68
2022/03/07 07:18:34;;;;;;;3.58;2.85;;;;;;;10.12;45.03;99430.62;1743646;82;20994;-67
2022/03/07 07:21:00;;;;;;;3.35;3.05;;;;;;;10.13;45.01;99424.80;1743566;82;21574;-67
2022/03/07 07:23:27;;;;;;;3.92;3.05;;;;;;;10.14;45.01;99422.45;1743926;81;21784;-67
2022/03/07 07:25:54;;;;;;;4.62;3.65;;;;;;;10.15;45.00;99414.33;1742389;81;21026;-67
2022/03/07 07:28:21;;;;;;;3.92;3.02;;;;;;;10.16;45.00;99412.49;1743569;81;21007;-68
2022/03/07 07:30:48;;;;;;;4.78;3.30;;;;;;;10.17;45.00;99414.16;1743480;82;21030;-67
2022/03/07 07:33:16;;;;;;;4.37;3.25;;;;;;;10.17;45.00;99416.30;1743648;82;21570;-68
2022/03/07 07:35:42;;;;;;;6.35;3.17;;;;;;;10.18;44.99;99417.97;1743576;82;21875;-67
2022/03/07 07:38:09;;;;;;;3.67;3.30;;;;;;;10.20;44.99;99421.79;1743450;82;21095;-67
2022/03/07 07:40:35;;;;;;;3.42;2.75;;;;;;;10.21;44.98;99418.12;1743580;82;21054;-68
2022/03/07 07:43:03;;;;;;;4.12;3.22;;;;;;;10.22;44.98;99412.64;1723604;82;21051;-68
2022/03/07 07:45:29;;;;;;;4.10;3.15;;;;;;;10.23;44.98;99413.46;1726769;82;21019;-67
2022/03/07 07:47:58;;;;;;;3.65;3.15;;;;;;;10.25;44.96;99414.11;1741459;82;21855;-67
2022/03/07 07:50:24;;;;;;;4.45;3.47;;;;;;;10.27;44.97;99415.27;1743595;81;21031;-67
2022/03/07 07:52:50;;;;;;;3.37;2.80;;;;;;;10.27;44.94;99412.11;1743865;81;21054;-67
2022/03/07 07:55:17;;;;;;;3.85;3.20;;;;;;;10.28;44.96;99411.12;1743646;81;21011;-68
2022/03/07 07:57:43;;;;;;;4.35;3.12;;;;;;;10.30;44.95;99415.78;1743570;82;21609;-67
2022/03/07 08:00:15;;;;;;;5.00;3.17;;;;;;;10.30;44.97;99406.49;1731906;81;21138;-67
2022/03/07 08:02:39;;;;;;;3.92;3.00;;;;;;;10.33;44.92;99410.11;1743273;81;21034;-67
2022/03/07 08:05:07;;;;;;;4.25;3.15;;;;;;;10.33;44.93;99411.44;1743624;82;21007;-67
2022/03/07 08:07:39;;;;;;;4.47;3.47;;;;;;;10.36;44.92;99412.94;1743570;82;21521;-67
2022/03/07 08:10:06;;;;;;;3.50;3.20;;;;;;;10.37;44.92;99411.92;1743677;81;21002;-67
2022/03/07 08:12:34;;;;;;;3.55;3.25;;;;;;;10.38;44.92;99406.44;1743475;81;21135;-67
2022/03/07 08:15:00;;;;;;;3.80;3.10;;;;;;;10.39;44.91;99405.93;1743555;81;21022;-68
2022/03/07 08:17:26;;;;;;;5.45;3.40;;;;;;;10.40;44.91;99401.78;1718884;81;21026;-68
2022/03/07 08:19:53;;;;;;;3.50;2.60;;;;;;;10.41;44.88;99398.14;1713894;82;21058;-67
2022/03/07 08:22:19;;;;;;;3.92;2.87;;;;;;;10.42;44.87;99401.61;1714214;82;21030;-67
2022/03/07 08:24:46;;;;;;;3.52;3.17;;;;;;;10.43;44.88;99401.95;1713912;83;22072;-67
2022/03/07 08:27:12;;;;;;;5.28;3.22;;;;;;;10.42;44.87;99402.43;1713911;83;21494;-67
2022/03/07 08:29:39;;;;;;;5.25;4.20;;;;;;;10.46;44.88;99402.09;1714107;83;21014;-67
2022/03/07 08:32:06;;;;;;;5.37;3.75;;;;;;;10.46;44.87;99402.91;1714285;83;21692;-66
2022/03/07 08:34:35;;;;;;;4.50;3.62;;;;;;;10.47;44.86;99399.74;1714865;82;21050;-67
2022/03/07 08:37:02;;;;;;;4.35;3.40;;;;;;;10.48;44.86;99405.39;1714072;83;21218;-68
2022/03/07 08:39:29;;;;;;;5.37;3.50;;;;;;;10.49;44.83;99406.55;1713863;83;21562;-68
2022/03/07 08:41:55;;;;;;;4.17;3.75;;;;;;;10.49;44.85;99409.21;1713706;82;21066;-67
2022/03/07 08:44:21;;;;;;;4.55;3.58;;;;;;;10.51;44.85;99410.37;1713835;83;21045;-67
2022/03/07 08:46:48;;;;;;;4.22;3.27;;;;;;;10.52;44.84;99410.16;1713807;83;21026;-67
2022/03/07 08:49:14;;;;;;;3.85;3.25;;;;;;;10.53;44.82;99414.49;1713856;83;21255;-67
2022/03/07 08:51:43;;;;;;;3.95;3.52;;;;;;;10.54;44.83;99411.33;1737669;82;21033;-67
2022/03/07 08:54:10;;;;;;;4.75;3.95;;;;;;;10.56;44.83;99410.64;1743626;81;21027;-69
2022/03/07 08:56:36;;;;;;;7.00;3.60;;;;;;;10.58;44.80;99411.30;1743426;82;21058;-67
2022/03/07 08:59:03;;;;;;;4.90;3.27;;;;;;;10.58;44.81;99407.31;1743965;82;21015;-67
2022/03/07 09:01:29;;;;;;;5.40;3.83;;;;;;;10.60;44.79;99409.28;1743569;82;21225;-67
2022/03/07 09:03:57;;;;;;;4.92;3.15;;;;;;;10.61;44.79;99408.30;1743378;82;21026;-68
2022/03/07 09:06:23;;;;;;;4.10;3.25;;;;;;;10.62;44.77;99409.94;1743262;82;21006;-67
2022/03/07 09:08:49;;;;;;;4.10;3.17;;;;;;;10.62;44.78;99416.10;1742902;82;21070;-67
2022/03/07 09:11:16;;;;;;;4.97;3.85;;;;;;;10.63;44.76;99408.44;1743505;81;21039;-67
2022/03/07 09:13:42;;;;;;;4.15;3.10;;;;;;;10.66;44.76;99414.40;1743387;82;21267;-67
2022/03/07 09:16:09;;;;;;;4.25;2.92;;;;;;;10.67;44.76;99412.08;1743495;82;21003;-68
2022/03/07 09:18:36;;;;;;;4.83;3.62;;;;;;;10.68;44.75;99415.05;1743409;82;21558;-67
2022/03/07 09:21:03;;;;;;;4.00;3.47;;;;;;;10.67;44.74;99407.59;1743792;81;21055;-68
2022/03/07 09:23:34;;;;;;;4.75;3.65;;;;;;;10.68;44.74;99411.91;1742397;82;21015;-67
2022/03/07 09:25:59;;;;;;;4.87;3.58;;;;;;;10.70;44.74;99417.02;1743354;81;21098;-68
2022/03/07 09:28:26;;;;;;;3.75;2.92;;;;;;;10.70;44.73;99414.37;1743691;81;21538;-67
2022/03/07 09:30:52;;;;;;;3.85;3.17;;;;;;;10.71;44.71;99410.21;1743625;82;21534;-68
2022/03/07 09:33:18;;;;;;;4.83;3.22;;;;;;;10.72;44.71;99411.03;1743458;82;20991;-67
2022/03/07 09:35:45;;;;;;;3.95;3.55;;;;;;;10.73;44.70;99410.86;1743683;81;21594;-68
2022/03/07 09:38:11;;;;;;;4.03;3.35;;;;;;;10.75;44.69;99415.49;1743702;81;21733;-68
2022/03/07 09:40:38;;;;;;;5.92;3.77;;;;;;;10.76;44.70;99408.38;1740643;81;21098;-68
2022/03/07 09:43:04;;;;;;;4.28;3.20;;;;;;;10.78;44.68;99407.69;1734302;82;21059;-67
2022/03/07 09:45:31;;;;;;;3.98;3.35;;;;;;;10.79;44.70;99402.17;1735132;82;20976;-66
2022/03/07 09:47:58;;;;;;;4.87;3.85;;;;;;;10.81;44.68;99400.16;1735035;82;21046;-67
2022/03/07 09:50:24;;;;;;;4.62;3.45;;;;;;;10.83;44.70;99396.00;1735270;82;21249;-66
2022/03/07 09:52:50;;;;;;;4.65;3.75;;;;;;;10.86;44.69;99396.98;1735177;82;21405;-67
2022/03/07 09:57:41;;;;;;;4.78;3.47;;;;;;;10.97;44.66;99402.37;1851147;76;28094;-66
2022/03/07 10:00:09;;;;;;;4.55;3.30;;;;;;;10.96;44.65;99406.05;1794062;80;21616;-67
2022/03/07 10:02:35;;;;;;;5.12;4.00;;;;;;;11.00;44.63;99403.35;1794020;80;21864;-67
2022/03/07 10:05:03;;;;;;;4.42;3.40;;;;;;;11.03;44.62;99399.02;1794288;79;20969;-66
2022/03/07 10:07:30;;;;;;;4.65;4.03;;;;;;;11.07;44.60;99400.31;1793988;79;20961;-67
2022/03/07 10:10:07;;;;;;;4.12;3.70;;;;;;;11.11;44.57;99394.95;1793894;80;21093;-67
2022/03/07 10:12:34;;;;;;;4.22;3.70;;;;;;;11.15;44.58;99390.92;1793961;80;21412;-66
2022/03/07 10:15:13;;;;;;;5.08;4.22;;;;;;;11.19;44.52;99384.23;1795107;78;20973;-67
2022/03/07 10:17:43;;;;;;;4.65;4.20;;;;;;;11.23;44.50;99383.88;1794164;79;20953;-67
2022/03/07 10:20:11;;;;;;;5.80;4.60;;;;;;;11.28;44.56;99386.80;1793780;79;21469;-67
2022/03/07 10:22:48;;;;;;;5.20;4.10;;;;;;;11.30;44.56;99382.98;1794256;80;21108;-69
2022/03/07 10:25:14;;;;;;;4.67;4.05;;;;;;;11.33;44.62;99376.46;1793960;80;21017;-67
2022/03/07 10:27:44;;;;;;;4.15;3.67;;;;;;;11.35;44.66;99378.44;1794037;79;21252;-67
2022/03/07 10:30:17;;;;;;;5.00;4.50;;;;;;;11.38;44.64;99372.25;1794095;80;21567;-67
2022/03/07 10:32:55;;;;;;;5.37;4.75;;;;;;;11.40;44.61;99376.06;1795357;78;21001;-67
2022/03/07 10:35:25;;;;;;;4.92;4.28;;;;;;;11.41;44.57;99374.56;1793771;79;21556;-67
2022/03/07 10:38:01;;;;;;;4.78;3.75;;;;;;;11.43;44.54;99381.00;1793970;80;21009;-67
2022/03/07 10:40:28;;;;;;;4.17;3.62;;;;;;;11.44;44.49;99377.86;1795004;78;21922;-68
2022/03/07 10:42:54;;;;;;;4.65;4.25;;;;;;;11.45;44.46;99372.84;1826435;78;21080;-67
2022/03/07 10:45:22;;;;;;;4.28;3.87;;;;;;;11.46;44.42;99368.67;1827148;78;20966;-67
2022/03/07 10:47:59;;;;;;;4.50;4.10;;;;;;;11.48;44.39;99374.64;1826406;78;21042;-68
2022/03/07 10:50:28;;;;;;;4.35;3.80;;;;;;;11.50;44.38;99369.95;1824822;78;21072;-67
2022/03/07 10:53:06;;;;;;;3.87;3.37;;;;;;;11.53;44.41;99360.78;1826783;78;21149;-67
2022/03/07 10:55:33;;;;;;;6.00;4.20;;;;;;;11.56;44.40;99362.57;1826352;78;21091;-67
2022/03/07 10:58:11;;;;;;;3.87;3.47;;;;;;;11.59;44.38;99368.05;1826478;78;21017;-67
2022/03/07 11:00:57;;;;;;;4.47;3.90;;;;;;;11.62;44.38;99365.00;1825783;78;21013;-68
2022/03/07 11:03:26;;;;;;;4.87;3.77;;;;;;;11.65;44.42;99364.65;1818038;78;20993;-67
2022/03/07 11:05:53;;;;;;;4.78;3.58;;;;;;;11.68;44.40;99360.78;1819899;78;21870;-67
2022/03/07 11:08:20;;;;;;;4.72;3.65;;;;;;;11.69;44.39;99366.44;1793762;80;21064;-67
2022/03/07 11:10:54;;;;;;;4.45;3.35;;;;;;;11.70;44.31;99357.43;1793345;79;20978;-67
2022/03/07 11:13:26;;;;;;;5.35;3.72;;;;;;;11.72;44.24;99351.42;1793486;80;21001;-67
2022/03/07 11:15:58;;;;;;;4.12;3.55;;;;;;;11.72;44.22;99349.57;1793577;80;21081;-70
2022/03/07 11:18:27;;;;;;;4.15;3.75;;;;;;;11.74;44.21;99353.38;1793583;79;21521;-68
2022/03/07 11:20:55;;;;;;;4.37;3.47;;;;;;;11.75;44.13;99343.08;1793360;79;21420;-67
2022/03/07 11:23:24;;;;;;;4.87;3.58;;;;;;;11.77;44.13;99346.37;1794461;78;20994;-68
2022/03/07 11:25:52;;;;;;;4.95;3.85;;;;;;;11.77;44.12;99341.05;1793262;80;21604;-67
2022/03/07 11:28:22;;;;;;;4.30;3.55;;;;;;;11.79;44.10;99340.36;1793510;80;21044;-66
2022/03/07 11:30:48;;;;;;;4.55;3.33;;;;;;;11.78;44.07;99338.21;1793421;80;21227;-66
2022/03/07 11:33:17;;;;;;;4.75;3.83;;;;;;;11.80;44.06;99332.68;1793300;80;20994;-66
2022/03/07 11:35:49;;;;;;;4.60;3.35;;;;;;;11.79;44.03;99330.53;1793660;80;21075;-67
2022/03/07 11:38:22;;;;;;;4.05;3.65;;;;;;;11.80;43.98;99337.52;1793639;80;21017;-68